Time;durP1;ratioP1;P1;durP2;ratioP2;P2;SDS_P1;SDS_P2;PMS_P1;PMS_P2;Temp;Humidity;BMP_temperature;BMP_pressure;BME280_temperature;BME280_humidity;BME280_pressure;Samples;Min_cycle;Max_cycle;Signal;HPM_P1;HPM_P2
2023/03/24 00:01:08;;;;;;;;;;;;;;;;;;2210250;67;1176;-68
2023/03/24 00:03:39;;;;;;;;;;;;;;;;;;2210260;67;1176;-69
2023/03/24 00:06:12;;;;;;;;;;;;;;;;;;2209192;67;1239;-69
2023/03/24 00:08:46;;;;;;;;;;;;;;;;;;2208743;67;1192;-69
2023/03/24 00:11:18;;;;;;;;;;;;;;;;;;2208182;67;1246;-69
2023/03/24 00:13:48;;;;;;;;;;;;;;;;;;2209393;67;1988;-69
2023/03/24 00:16:20;;;;;;;;;;;;;;;;;;2209864;59;1158;-69
2023/03/24 00:18:51;;;;;;;;;;;;;;;;;;2209516;67;1282;-68
2023/03/24 00:21:23;;;;;;;;;;;;;;;;;;2210170;67;1108;-69
2023/03/24 00:23:54;;;;;;;;;;;;;;;;;;2209688;67;1068;-69
2023/03/24 00:26:25;;;;;;;;;;;;;;;;;;2209749;67;1115;-69
2023/03/24 00:28:56;;;;;;;;;;;;;;;;;;2210773;67;1155;-68
2023/03/24 00:31:26;;;;;;;;;;;;;;;;;;2210005;67;1191;-69
2023/03/24 00:33:57;;;;;;;;;;;;;;;;;;2210059;67;1937;-69
2023/03/24 00:36:28;;;;;;;;;;;;;;;;;;2209789;67;1299;-69
2023/03/24 00:38:59;;;;;;;;;;;;;;;;;;2210751;67;1195;-69
2023/03/24 00:41:30;;;;;;;;;;;;;;;;;;2210795;67;1194;-69
2023/03/24 00:44:04;;;;;;;;;;;;;;;;;;2209323;59;1150;-69
2023/03/24 00:46:36;;;;;;;;;;;;;;;;;;2212706;59;1084;-68
2023/03/24 00:49:06;;;;;;;;;;;;;;;;;;2210103;59;1143;-69
2023/03/24 00:51:38;;;;;;;;;;;;;;;;;;2212214;67;1146;-69
2023/03/24 00:54:10;;;;;;;;;;;;;;;;;;2212105;67;1902;-69
2023/03/24 00:56:42;;;;;;;;;;;;;;;;;;2211251;67;1170;-68
2023/03/24 00:59:12;;;;;;;;;;;;;;;;;;2211346;67;1576;-69
2023/03/24 01:01:44;;;;;;;;;;;;;;;;;;2210655;67;1290;-69
2023/03/24 01:04:14;;;;;;;;;;;;;;;;;;2212047;67;1144;-69
2023/03/24 01:06:45;;;;;;;;;;;;;;;;;;2213249;67;1245;-69
2023/03/24 01:09:16;;;;;;;;;;;;;;;;;;2210133;67;1276;-69
2023/03/24 01:11:46;;;;;;;;;;;;;;;;;;2210512;67;1156;-69
2023/03/24 01:14:17;;;;;;;;;;;;;;;;;;2210319;67;1906;-69
2023/03/24 01:16:47;;;;;;;;;;;;;;;;;;2209932;67;1066;-68
2023/03/24 01:19:18;;;;;;;;;;;;;;;;;;2210008;67;1311;-70
2023/03/24 01:21:49;;;;;;;;;;;;;;;;;;2209953;67;1233;-69
2023/03/24 01:24:20;;;;;;;;;;;;;;;;;;2212662;67;1182;-68
2023/03/24 01:26:51;;;;;;;;;;;;;;;;;;2209893;67;1287;-69
2023/03/24 01:29:21;;;;;;;;;;;;;;;;;;2208851;67;1271;-69
2023/03/24 01:31:51;;;;;;;;;;;;;;;;;;2211967;67;1100;-69
2023/03/24 01:34:22;;;;;;;;;;;;;;;;;;2208858;67;1960;-69
2023/03/24 01:36:52;;;;;;;;;;;;;;;;;;2207430;67;1489;-69
2023/03/24 01:39:22;;;;;;;;;;;;;;;;;;2210026;67;1229;-69
2023/03/24 01:41:56;;;;;;;;;;;;;;;;;;2209196;67;1152;-69
2023/03/24 01:44:26;;;;;;;;;;;;;;;;;;2209035;67;1247;-68
2023/03/24 01:46:57;;;;;;;;;;;;;;;;;;2209196;59;1179;-68
2023/03/24 01:49:36;;;;;;;;;;;;;;;;;;2209442;67;1217;-69
2023/03/24 01:52:09;;;;;;;;;;;;;;;;;;2211820;59;1261;-69
2023/03/24 01:54:46;;;;;;;;;;;;;;;;;;2209868;67;1941;-69
2023/03/24 01:57:21;;;;;;;;;;;;;;;;;;2209036;67;1320;-69
2023/03/24 01:59:54;;;;;;;;;;;;;;;;;;2210326;67;1242;-68
2023/03/24 02:02:25;;;;;;;;;;;;;;;;;;2210437;67;1182;-69
2023/03/24 02:04:59;;;;;;;;;;;;;;;;;;2211015;67;1049;-69
2023/03/24 02:07:33;;;;;;;;;;;;;;;;;;2208633;67;1108;-69
2023/03/24 02:10:12;;;;;;;;;;;;;;;;;;2209138;67;1171;-69
2023/03/24 02:12:43;;;;;;;;;;;;;;;;;;2208569;59;2006;-69
2023/03/24 02:15:14;;;;;;;;;;;;;;;;;;2208420;67;1509;-69
2023/03/24 02:18:03;;;;;;;;;;;;;;;;;;2209863;67;1235;-69
2023/03/24 02:20:45;;;;;;;;;;;;;;;;;;2209766;67;1173;-69
2023/03/24 02:23:16;;;;;;;;;;;;;;;;;;2211392;67;1162;-69
2023/03/24 02:25:52;;;;;;;;;;;;;;;;;;2210046;67;1203;-71
2023/03/24 02:28:33;;;;;;;;;;;;;;;;;;2209484;67;1216;-69
2023/03/24 02:31:13;;;;;;;;;;;;;;;;;;2209614;67;1187;-69
2023/03/24 02:34:05;;;;;;;;;;;;;;;;;;2209575;59;1987;-69
2023/03/24 02:36:54;;;;;;;;;;;;;;;;;;2210219;67;1232;-69
2023/03/24 02:39:24;;;;;;;;;;;;;;;;;;2212431;67;1208;-69
2023/03/24 02:42:05;;;;;;;;;;;;;;;;;;2210117;67;1094;-68
2023/03/24 02:44:51;;;;;;;;;;;;;;;;;;2209914;67;1345;-69
2023/03/24 02:47:43;;;;;;;;;;;;;;;;;;2208958;67;2032;-69
2023/03/24 02:50:30;;;;;;;;;;;;;;;;;;2209871;67;1318;-68
2023/03/24 02:53:03;;;;;;;;;;;;;;;;;;2209624;67;1976;-69
2023/03/24 02:55:38;;;;;;;;;;;;;;;;;;2209792;67;1143;-69
2023/03/24 02:58:24;;;;;;;;;;;;;;;;;;2209603;67;1293;-69
2023/03/24 03:00:58;;;;;;;;;;;;;;;;;;2209685;67;1051;-69
2023/03/24 03:03:37;;;;;;;;;;;;;;;;;;2210317;67;1163;-69
2023/03/24 03:06:20;;;;;;;;;;;;;;;;;;2209612;67;1231;-68
2023/03/24 03:08:51;;;;;;;;;;;;;;;;;;2208399;67;1301;-69
2023/03/24 03:11:22;;;;;;;;;;;;;;;;;;2208647;59;1237;-69
2023/03/24 03:13:55;;;;;;;;;;;;;;;;;;2209120;67;1979;-69
2023/03/24 03:16:33;;;;;;;;;;;;;;;;;;2210264;67;1289;-69
2023/03/24 03:19:18;;;;;;;;;;;;;;;;;;2209528;67;1285;-69
2023/03/24 03:21:49;;;;;;;;;;;;;;;;;;2209835;67;1323;-69
2023/03/24 03:24:26;;;;;;;;;;;;;;;;;;2208410;67;1162;-69
2023/03/24 03:27:02;;;;;;;;;;;;;;;;;;2209907;67;1153;-68
2023/03/24 03:29:38;;;;;;;;;;;;;;;;;;2209754;67;1244;-68
2023/03/24 03:32:12;;;;;;;;;;;;;;;;;;2211193;67;1495;-68
2023/03/24 03:34:54;;;;;;;;;;;;;;;;;;2209310;67;1937;-68
2023/03/24 03:37:44;;;;;;;;;;;;;;;;;;2212493;67;1264;-68
2023/03/24 03:40:40;;;;;;;;;;;;;;;;;;2208350;67;1254;-69
2023/03/24 03:43:11;;;;;;;;;;;;;;;;;;2207637;67;1253;-69
2023/03/24 03:45:44;;;;;;;;;;;;;;;;;;2209749;67;1340;-68
2023/03/24 03:48:20;;;;;;;;;;;;;;;;;;2208477;59;1245;-68
2023/03/24 03:50:52;;;;;;;;;;;;;;;;;;2208844;67;1187;-68
2023/03/24 03:53:27;;;;;;;;;;;;;;;;;;2211470;67;1988;-68
2023/03/24 03:55:57;;;;;;;;;;;;;;;;;;2208771;67;1138;-68
2023/03/24 03:58:28;;;;;;;;;;;;;;;;;;2208428;67;1381;-68
2023/03/24 04:01:09;;;;;;;;;;;;;;;;;;2210570;67;1251;-68
2023/03/24 04:03:57;;;;;;;;;;;;;;;;;;2210809;59;1158;-67
2023/03/24 04:06:35;;;;;;;;;;;;;;;;;;2210339;67;1105;-68
2023/03/24 04:09:18;;;;;;;;;;;;;;;;;;2211612;67;1199;-68
2023/03/24 04:12:01;;;;;;;;;;;;;;;;;;2221886;59;1856;-68
2023/03/24 04:14:43;;;;;;;;;;;;;;;;;;2220523;67;1916;-68
2023/03/24 04:17:16;;;;;;;;;;;;;;;;;;2210156;59;4100;-68
2023/03/24 04:20:00;;;;;;;;;;;;;;;;;;2210374;67;1438;-68
2023/03/24 04:22:42;;;;;;;;;;;;;;;;;;2209161;67;1224;-68
2023/03/24 04:25:19;;;;;;;;;;;;;;;;;;2211453;67;1141;-68
2023/03/24 04:27:59;;;;;;;;;;;;;;;;;;2210220;67;1246;-68
2023/03/24 04:30:38;;;;;;;;;;;;;;;;;;2210496;67;1283;-68
2023/03/24 04:33:16;;;;;;;;;;;;;;;;;;2210481;67;1937;-67
2023/03/24 04:35:51;;;;;;;;;;;;;;;;;;2211185;67;1476;-68
2023/03/24 04:38:27;;;;;;;;;;;;;;;;;;2210324;67;1155;-68
2023/03/24 04:40:58;;;;;;;;;;;;;;;;;;2209887;67;1165;-68
2023/03/24 04:43:34;;;;;;;;;;;;;;;;;;2210736;67;1187;-68
2023/03/24 04:46:05;;;;;;;;;;;;;;;;;;2209512;67;1171;-68
2023/03/24 04:48:36;;;;;;;;;;;;;;;;;;2210032;59;1440;-68
2023/03/24 04:51:08;;;;;;;;;;;;;;;;;;2209892;67;1181;-68
2023/03/24 04:53:38;;;;;;;;;;;;;;;;;;2210982;59;2005;-68
2023/03/24 04:56:15;;;;;;;;;;;;;;;;;;2214189;67;2130;-68
2023/03/24 04:58:45;;;;;;;;;;;;;;;;;;2213147;67;1284;-68
2023/03/24 05:01:16;;;;;;;;;;;;;;;;;;2212399;67;1284;-68
2023/03/24 05:03:46;;;;;;;;;;;;;;;;;;2207766;59;1424;-68
2023/03/24 05:06:17;;;;;;;;;;;;;;;;;;2209056;67;1274;-68
2023/03/24 05:08:53;;;;;;;;;;;;;;;;;;2209818;67;1123;-68
2023/03/24 05:11:26;;;;;;;;;;;;;;;;;;2209298;67;1134;-68
2023/03/24 05:13:57;;;;;;;;;;;;;;;;;;2209377;67;1944;-68
2023/03/24 05:16:27;;;;;;;;;;;;;;;;;;2209499;67;1155;-68
2023/03/24 05:18:58;;;;;;;;;;;;;;;;;;2209726;67;1244;-67
2023/03/24 05:21:29;;;;;;;;;;;;;;;;;;2209985;67;1263;-68
2023/03/24 05:23:59;;;;;;;;;;;;;;;;;;2209554;67;1056;-68
2023/03/24 05:26:30;;;;;;;;;;;;;;;;;;2210621;59;1353;-68
2023/03/24 05:29:00;;;;;;;;;;;;;;;;;;2210220;67;1303;-68
2023/03/24 05:31:30;;;;;;;;;;;;;;;;;;2210190;67;1271;-68
2023/03/24 05:34:06;;;;;;;;;;;;;;;;;;2209725;67;1936;-68
2023/03/24 05:36:37;;;;;;;;;;;;;;;;;;2208107;59;1268;-68
2023/03/24 05:39:07;;;;;;;;;;;;;;;;;;2209333;67;1263;-68
2023/03/24 05:41:38;;;;;;;;;;;;;;;;;;2209193;59;1084;-68
2023/03/24 05:44:08;;;;;;;;;;;;;;;;;;2210577;67;1240;-68
2023/03/24 05:46:38;;;;;;;;;;;;;;;;;;2211665;59;1058;-68
2023/03/24 05:49:08;;;;;;;;;;;;;;;;;;2208043;67;1205;-68
2023/03/24 05:51:39;;;;;;;;;;;;;;;;;;2210376;67;2249;-68
2023/03/24 05:54:09;;;;;;;;;;;;;;;;;;2209189;59;1996;-68
2023/03/24 05:56:39;;;;;;;;;;;;;;;;;;2209538;67;1259;-68
2023/03/24 05:59:10;;;;;;;;;;;;;;;;;;2209757;67;1167;-68
2023/03/24 06:01:43;;;;;;;;;;;;;;;;;;2209604;59;1135;-68
2023/03/24 06:04:13;;;;;;;;;;;;;;;;;;2210317;67;1283;-68
2023/03/24 06:06:44;;;;;;;;;;;;;;;;;;2209369;67;1235;-68
2023/03/24 06:09:18;;;;;;;;;;;;;;;;;;2209425;67;1224;-68
2023/03/24 06:11:48;;;;;;;;;;;;;;;;;;2209653;67;1259;-68
2023/03/24 06:14:19;;;;;;;;;;;;;;;;;;2209026;67;1947;-68
2023/03/24 06:16:49;;;;;;;;;;;;;;;;;;2208180;67;1279;-68
2023/03/24 06:19:23;;;;;;;;;;;;;;;;;;2209848;67;1156;-68
2023/03/24 06:21:53;;;;;;;;;;;;;;;;;;2215110;53;2060;-22
2023/03/24 06:24:24;;;;;;;;;;;;;;;;;;2211529;66;1712;-22
2023/03/24 06:27:00;;;;;;;;;;;;;;;;;;2211427;59;2145;-21
2023/03/24 06:29:31;;;;;;;;;;;;;;;;;;2211419;59;1728;-21
2023/03/24 06:32:02;;;;;;;;;;;;;;;;;;2208651;59;4369;-25
2023/03/24 06:34:33;;;;;;;;;;;;;;;;;;2206080;59;1931;-25
2023/03/24 06:37:04;;;;;;;;;;;;;;;;;;2211768;59;1357;-25
2023/03/24 06:39:34;;;;;;;;;;;;;;;;;;2207531;59;1660;-25
2023/03/24 06:42:04;;;;;;;;;;;;;;;;;;2209049;59;2102;-25
2023/03/24 06:44:35;;;;;;;;;;;;;;;;;;2203131;67;1278;-25
2023/03/24 06:47:05;;;;;;;;;;;;;;;;;;2203045;59;1377;-25
2023/03/24 06:49:36;;;;;;;;;;;;;;;;;;2202181;62;1205;-25
2023/03/24 06:52:06;;;;;;;;;;;;;;;;;;2205002;67;1364;-25
2023/03/24 06:54:36;;;;;;;;;;;;;;;;;;2205096;67;1925;-26
2023/03/24 06:57:07;;;;;;;;;;;;;;;;;;2201686;67;1233;-25
2023/03/24 06:59:38;;;;;;;;;;;;;;;;;;2205263;59;1004;-25
2023/03/24 07:02:11;;;;;;;;;;;;;;;;;;2205542;67;1168;-25
2023/03/24 07:04:42;;;;;;;;;;;;;;;;;;2202929;59;1640;-25
2023/03/24 07:07:13;;;;;;;;;;;;;;;;;;2203227;67;1448;-25
2023/03/24 07:09:43;;;;;;;;;;;;;;;;;;2206447;67;1163;-25
2023/03/24 07:12:14;;;;;;;;;;;;;;;;;;2204893;67;1725;-25
2023/03/24 07:14:44;;;;;;;;;;;;;;;;;;2202166;67;1937;-25
2023/03/24 07:17:15;;;;;;;;;;;;;;;;;;2205301;59;1199;-25
2023/03/24 07:19:45;;;;;;;;;;;;;;;;;;2202201;59;1270;-25
2023/03/24 07:22:15;;;;;;;;;;;;;;;;;;2203045;67;1268;-25
2023/03/24 07:24:46;;;;;;;;;;;;;;;;;;2205543;67;1359;-26
2023/03/24 07:27:16;;;;;;;;;;;;;;;;;;2208026;53;4475;-25
2023/03/24 07:29:46;;;;;;;;;;;;;;;;;;2207832;67;1384;-25
2023/03/24 07:32:17;;;;;;;;;;;;;;;;;;2208848;67;1575;-25
2023/03/24 07:34:48;;;;;;;;;;;;;;;;;;2207994;67;1945;-25
2023/03/24 07:37:18;;;;;;;;;;;;;;;;;;2208055;67;1668;-26
2023/03/24 07:39:48;;;;;;;;;;;;;;;;;;2208630;60;1311;-26
2023/03/24 07:42:19;;;;;;;;;;;;;;;;;;2208570;67;1802;-26
2023/03/24 07:44:49;;;;;;;;;;;;;;;;;;2207709;67;1936;-25
2023/03/24 07:47:19;;;;;;;;;;;;;;;;;;2209069;59;1160;-26
2023/03/24 07:49:49;;;;;;;;;;;;;;;;;;2208232;67;1842;-26
2023/03/24 07:52:20;;;;;;;;;;;;;;;;;;2209201;67;1439;-26
2023/03/24 07:54:50;;;;;;;;;;;;;;;;;;2208086;67;1925;-26
2023/03/24 07:57:21;;;;;;;;;;;;;;;;;;2211661;67;1120;-25
2023/03/24 07:59:52;;;;;;;;;;;;;;;;;;2208421;67;1093;-27
2023/03/24 08:02:22;;;;;;;;;;;;;;;;;;2208589;67;1253;-26
2023/03/24 08:04:52;;;;;;;;;;;;;;;;;;2208296;59;1077;-27
2023/03/24 08:07:23;;;;;;;;;;;;;;;;;;2210596;67;1442;-27
2023/03/24 08:09:53;;;;;;;;;;;;;;;;;;2208265;59;1847;-27
2023/03/24 08:12:24;;;;;;;;;;;;;;;;;;2208732;67;1299;-27
2023/03/24 08:14:54;;;;;;;;;;;;;;;;;;2208310;67;1940;-26
2023/03/24 08:17:24;;;;;;;;;;;;;;;;;;2209097;67;1817;-26
2023/03/24 08:19:55;;;;;;;;;;;;;;;;;;2208361;67;1275;-27
2023/03/24 08:22:26;;;;;;;;;;;;;;;;;;2208861;67;1250;-27
2023/03/24 08:24:56;;;;;;;;;;;;;;;;;;2207888;59;1162;-26
2023/03/24 08:27:27;;;;;;;;;;;;;;;;;;2205944;59;1219;-26
2023/03/24 08:29:57;;;;;;;;;;;;;;;;;;2208408;67;1733;-27
2023/03/24 08:32:27;;;;;;;;;;;;;;;;;;2209167;67;1391;-25
2023/03/24 08:34:58;;;;;;;;;;;;;;;;;;2205197;67;1957;-27
2023/03/24 08:37:28;;;;;;;;;;;;;;;;;;2208716;67;1404;-26
2023/03/24 08:40:04;;;;;;;;;;;;;;;;;;2205482;67;1444;-25
2023/03/24 08:42:34;;;;;;;;;;;;;;;;;;2211102;59;2259;-25
2023/03/24 08:45:06;;;;;;;;;;;;;;;;;;2205798;59;1378;-27
2023/03/24 08:47:36;;;;;;;;;;;;;;;;;;2206089;67;1312;-27
2023/03/24 08:50:08;;;;;;;;;;;;;;;;;;2209336;60;1021;-27
2023/03/24 08:52:40;;;;;;;;;;;;;;;;;;2206283;59;2206;-25
2023/03/24 08:55:11;;;;;;;;;;;;;;;;;;2208544;67;1748;-26
2023/03/24 08:57:41;;;;;;;;;;;;;;;;;;2206430;67;1863;-27
2023/03/24 09:00:13;;;;;;;;;;;;;;;;;;2209886;67;1090;-27
2023/03/24 09:02:48;;;;;;;;;;;;;;;;;;2209203;60;1709;-27
2023/03/24 09:05:20;;;;;;;;;;;;;;;;;;2208965;67;1931;-25
2023/03/24 09:07:50;;;;;;;;;;;;;;;;;;2209113;59;1338;-26
2023/03/24 09:10:21;;;;;;;;;;;;;;;;;;2206559;67;1295;-27
2023/03/24 09:12:51;;;;;;;;;;;;;;;;;;2209307;67;1914;-27
2023/03/24 09:15:21;;;;;;;;;;;;;;;;;;2208446;67;1059;-27
2023/03/24 09:17:52;;;;;;;;;;;;;;;;;;2209720;67;1218;-27
2023/03/24 09:20:22;;;;;;;;;;;;;;;;;;2208815;59;1712;-27
2023/03/24 09:22:52;;;;;;;;;;;;;;;;;;2205713;67;1257;-27
2023/03/24 09:25:23;;;;;;;;;;;;;;;;;;2208536;67;1278;-26
2023/03/24 09:27:55;;;;;;;;;;;;;;;;;;2209226;67;1494;-26
2023/03/24 09:30:25;;;;;;;;;;;;;;;;;;2209119;59;1305;-25
2023/03/24 09:32:59;;;;;;;;;;;;;;;;;;2208804;59;1939;-25
2023/03/24 09:35:29;;;;;;;;;;;;;;;;;;2208521;67;1321;-27
2023/03/24 09:38:00;;;;;;;;;;;;;;;;;;2209222;59;1242;-27
2023/03/24 09:40:31;;;;;;;;;;;;;;;;;;2211141;67;1660;-26
2023/03/24 09:43:05;;;;;;;;;;;;;;;;;;2211406;67;1221;-26
2023/03/24 09:45:36;;;;;;;;;;;;;;;;;;2208909;59;1241;-25
2023/03/24 09:48:10;;;;;;;;;;;;;;;;;;2205983;67;1674;-24
2023/03/24 09:50:47;;;;;;;;;;;;;;;;;;2208687;67;1472;-23
2023/03/24 09:53:37;;;;;;;;;;;;;;;;;;2211124;67;1958;-23
2023/03/24 09:56:12;;;;;;;;;;;;;;;;;;2205116;67;1596;-24
2023/03/24 09:58:45;;;;;;;;;;;;;;;;;;2207766;59;2219;-25
2023/03/24 10:01:16;;;;;;;;;;;;;;;;;;2207866;59;1357;-24
2023/03/24 10:03:46;;;;;;;;;;;;;;;;;;2207941;59;1376;-24
2023/03/24 10:06:24;;;;;;;;;;;;;;;;;;2208799;67;1412;-24
2023/03/24 10:09:15;;;;;;;;;;;;;;;;;;2206556;67;1475;-24
2023/03/24 10:11:53;;;;;;;;;;;;;;;;;;2202827;67;1345;-24
2023/03/24 10:14:24;;;;;;;;;;;;;;;;;;2208395;59;1943;-25
2023/03/24 10:17:13;;;;;;;;;;;;;;;;;;2208979;67;1773;-25
2023/03/24 10:19:43;;;;;;;;;;;;;;;;;;2209700;67;1261;-24
2023/03/24 10:22:16;;;;;;;;;;;;;;;;;;2208795;67;1708;-24
2023/03/24 10:24:52;;;;;;;;;;;;;;;;;;2206090;66;1427;-24
2023/03/24 10:27:38;;;;;;;;;;;;;;;;;;2208807;59;1398;-26
2023/03/24 10:30:19;;;;;;;;;;;;;;;;;;2208035;67;1456;-24
2023/03/24 10:32:50;;;;;;;;;;;;;;;;;;2208555;59;1952;-24
2023/03/24 10:35:23;;;;;;;;;;;;;;;;;;2205813;67;1443;-25
2023/03/24 10:37:56;;;;;;;;;;;;;;;;;;2204463;67;1472;-25
2023/03/24 10:40:29;;;;;;;;;;;;;;;;;;2207755;67;1475;-24
2023/03/24 10:43:02;;;;;;;;;;;;;;;;;;2205995;59;1353;-23
2023/03/24 10:45:33;;;;;;;;;;;;;;;;;;2203239;67;1486;-24
2023/03/24 10:48:04;;;;;;;;;;;;;;;;;;2205016;67;1412;-24
2023/03/24 10:50:40;;;;;;;;;;;;;;;;;;2208622;67;1308;-24
2023/03/24 10:53:18;;;;;;;;;;;;;;;;;;2208239;59;1929;-23
2023/03/24 10:55:49;;;;;;;;;;;;;;;;;;2208428;59;1270;-24
2023/03/24 10:58:26;;;;;;;;;;;;;;;;;;2206793;67;1410;-27
2023/03/24 11:00:58;;;;;;;;;;;;;;;;;;2207721;59;1259;-27
2023/03/24 11:03:30;;;;;;;;;;;;;;;;;;2208216;67;1470;-24
2023/03/24 11:06:02;;;;;;;;;;;;;;;;;;2204674;67;1493;-25
2023/03/24 11:08:39;;;;;;;;;;;;;;;;;;2208606;67;1366;-28
2023/03/24 11:11:29;;;;;;;;;;;;;;;;;;2207611;67;1193;-25
2023/03/24 11:14:00;;;;;;;;;;;;;;;;;;2206935;67;2001;-24
2023/03/24 11:16:36;;;;;;;;;;;;;;;;;;2208145;67;1230;-25
2023/03/24 11:19:17;;;;;;;;;;;;;;;;;;2204558;59;1275;-26
2023/03/24 11:21:50;;;;;;;;;;;;;;;;;;2211180;67;1274;-24
2023/03/24 11:24:20;;;;;;;;;;;;;;;;;;2209076;59;1100;-25
2023/03/24 11:27:00;;;;;;;;;;;;;;;;;;2208222;59;1679;-25
2023/03/24 11:29:38;;;;;;;;;;;;;;;;;;2208683;67;1472;-24
2023/03/24 11:32:15;;;;;;;;;;;;;;;;;;2203048;67;1524;-26
2023/03/24 11:34:47;;;;;;;;;;;;;;;;;;2207392;59;1958;-24
2023/03/24 11:37:22;;;;;;;;;;;;;;;;;;2207903;67;1570;-26
2023/03/24 11:40:11;;;;;;;;;;;;;;;;;;2209049;67;1321;-24
2023/03/24 11:42:47;;;;;;;;;;;;;;;;;;2208518;67;1376;-25
2023/03/24 11:45:20;;;;;;;;;;;;;;;;;;2210920;67;1969;-25
2023/03/24 11:47:52;;;;;;;;;;;;;;;;;;2210912;67;1420;-25
2023/03/24 11:50:32;;;;;;;;;;;;;;;;;;2208081;67;1723;-25
2023/03/24 11:53:15;;;;;;;;;;;;;;;;;;2208388;67;1935;-26
2023/03/24 11:55:48;;;;;;;;;;;;;;;;;;2210792;67;2694;-24
2023/03/24 11:58:26;;;;;;;;;;;;;;;;;;2208136;67;1687;-25
2023/03/24 12:01:03;;;;;;;;;;;;;;;;;;2208157;67;1711;-27
2023/03/24 12:03:34;;;;;;;;;;;;;;;;;;2208670;59;1611;-25
2023/03/24 12:06:14;;;;;;;;;;;;;;;;;;2208846;62;1969;-27
2023/03/24 12:08:49;;;;;;;;;;;;;;;;;;2207549;67;1150;-25
2023/03/24 12:11:26;;;;;;;;;;;;;;;;;;2208834;67;1726;-25
2023/03/24 12:13:59;;;;;;;;;;;;;;;;;;2207060;59;1935;-25
2023/03/24 12:16:39;;;;;;;;;;;;;;;;;;2208279;67;1150;-24
2023/03/24 12:19:28;;;;;;;;;;;;;;;;;;2208617;67;1716;-25
2023/03/24 12:22:16;;;;;;;;;;;;;;;;;;2208692;67;1751;-23
2023/03/24 12:25:05;;;;;;;;;;;;;;;;;;2209315;67;1681;-27
2023/03/24 12:27:47;;;;;;;;;;;;;;;;;;2209656;59;2194;-24
2023/03/24 12:30:27;;;;;;;;;;;;;;;;;;2209008;59;1951;-24
2023/03/24 12:33:01;;;;;;;;;;;;;;;;;;2208887;67;1996;-24
2023/03/24 12:35:34;;;;;;;;;;;;;;;;;;2210670;67;1720;-24
2023/03/24 12:38:08;;;;;;;;;;;;;;;;;;2209153;67;1347;-24
2023/03/24 12:40:38;;;;;;;;;;;;;;;;;;2213142;53;3781;-20
2023/03/24 12:43:17;;;;;;;;;;;;;;;;;;2213890;59;1369;-21
2023/03/24 12:45:58;;;;;;;;;;;;;;;;;;2215376;59;1858;-21
2023/03/24 12:48:40;;;;;;;;;;;;;;;;;;2214839;67;1941;-21
2023/03/24 12:51:23;;;;;;;;;;;;;;;;;;2214802;67;1393;-21
2023/03/24 12:54:12;;;;;;;;;;;;;;;;;;2213060;67;1909;-21
2023/03/24 12:56:58;;;;;;;;;;;;;;;;;;2213830;67;2159;-21
2023/03/24 12:59:32;;;;;;;;;;;;;;;;;;2212628;67;1948;-21
2023/03/24 13:02:03;;;;;;;;;;;;;;;;;;2213751;59;1588;-21
2023/03/24 13:04:36;;;;;;;;;;;;;;;;;;2213997;67;2033;-21
2023/03/24 13:07:13;;;;;;;;;;;;;;;;;;2212498;67;2194;-21
2023/03/24 13:10:03;;;;;;;;;;;;;;;;;;2212972;67;1819;-21
2023/03/24 13:12:40;;;;;;;;;;;;;;;;;;2213638;67;1644;-20
2023/03/24 13:15:10;;;;;;;;;;;;;;;;;;2212171;67;2000;-21
2023/03/24 13:17:47;;;;;;;;;;;;;;;;;;2217615;66;1716;-21
2023/03/24 13:20:28;;;;;;;;;;;;;;;;;;2213157;59;1756;-21
2023/03/24 13:23:17;;;;;;;;;;;;;;;;;;2212932;67;1662;-20
2023/03/24 13:25:52;;;;;;;;;;;;;;;;;;2213935;67;1583;-20
2023/03/24 13:28:27;;;;;;;;;;;;;;;;;;2214271;67;1621;-20
2023/03/24 13:30:59;;;;;;;;;;;;;;;;;;2213779;59;1761;-20
2023/03/24 13:33:32;;;;;;;;;;;;;;;;;;2213601;67;1917;-21
2023/03/24 13:36:02;;;;;;;;;;;;;;;;;;2213686;67;2180;-20
2023/03/24 13:38:36;;;;;;;;;;;;;;;;;;2213920;67;1768;-20
2023/03/24 13:41:10;;;;;;;;;;;;;;;;;;2214574;59;2242;-20
2023/03/24 13:43:46;;;;;;;;;;;;;;;;;;2214666;59;1651;-20
2023/03/24 13:46:17;;;;;;;;;;;;;;;;;;2213577;67;2023;-29
2023/03/24 13:48:50;;;;;;;;;;;;;;;;;;2214027;66;2441;-20
2023/03/24 13:51:26;;;;;;;;;;;;;;;;;;2213635;67;1372;-20
2023/03/24 13:53:59;;;;;;;;;;;;;;;;;;2209496;67;1937;-21
2023/03/24 13:56:34;;;;;;;;;;;;;;;;;;2213193;67;1596;-21
2023/03/24 13:59:06;;;;;;;;;;;;;;;;;;2213880;67;1870;-20
2023/03/24 14:01:38;;;;;;;;;;;;;;;;;;2214528;67;1857;-21
2023/03/24 14:04:28;;;;;;;;;;;;;;;;;;2213108;67;2034;-21
2023/03/24 14:07:19;;;;;;;;;;;;;;;;;;2212653;67;2092;-21
2023/03/24 14:09:56;;;;;;;;;;;;;;;;;;2211877;66;2216;-21
2023/03/24 14:12:28;;;;;;;;;;;;;;;;;;2213627;67;1701;-21
2023/03/24 14:15:11;;;;;;;;;;;;;;;;;;2216428;66;2008;-21
2023/03/24 14:17:42;;;;;;;;;;;;;;;;;;2213792;59;1752;-21
2023/03/24 14:20:24;;;;;;;;;;;;;;;;;;2213793;67;1920;-21
2023/03/24 14:22:55;;;;;;;;;;;;;;;;;;2213955;67;1305;-21
2023/03/24 14:25:28;;;;;;;;;;;;;;;;;;2215421;66;2288;-21
2023/03/24 14:28:16;;;;;;;;;;;;;;;;;;2213717;67;1808;-21
2023/03/24 14:31:01;;;;;;;;;;;;;;;;;;2212105;67;1765;-21
2023/03/24 14:33:31;;;;;;;;;;;;;;;;;;2216225;59;1921;-21
2023/03/24 14:36:10;;;;;;;;;;;;;;;;;;2213153;67;1776;-21
2023/03/24 14:38:43;;;;;;;;;;;;;;;;;;2213493;59;1671;-21
2023/03/24 14:41:14;;;;;;;;;;;;;;;;;;2213063;59;1864;-21
2023/03/24 14:43:45;;;;;;;;;;;;;;;;;;2212736;67;1934;-21
2023/03/24 14:46:18;;;;;;;;;;;;;;;;;;2213674;67;2149;-21
2023/03/24 14:48:49;;;;;;;;;;;;;;;;;;2214103;67;1920;-21
2023/03/24 14:51:35;;;;;;;;;;;;;;;;;;2214318;67;1637;-21
2023/03/24 14:54:23;;;;;;;;;;;;;;;;;;2213011;67;1971;-21
2023/03/24 14:56:54;;;;;;;;;;;;;;;;;;2213447;67;1302;-21
2023/03/24 14:59:38;;;;;;;;;;;;;;;;;;2213626;58;1752;-21
2023/03/24 15:02:14;;;;;;;;;;;;;;;;;;2214117;67;1782;-21
2023/03/24 15:05:03;;;;;;;;;;;;;;;;;;2213799;67;1756;-22
2023/03/24 15:07:34;;;;;;;;;;;;;;;;;;2214178;67;1469;-22
2023/03/24 15:10:04;;;;;;;;;;;;;;;;;;2212952;67;2086;-21
2023/03/24 15:12:35;;;;;;;;;;;;;;;;;;2215972;66;1599;-21
2023/03/24 15:15:12;;;;;;;;;;;;;;;;;;2212928;67;1955;-21
2023/03/24 15:17:43;;;;;;;;;;;;;;;;;;2213488;67;1642;-21
2023/03/24 15:20:24;;;;;;;;;;;;;;;;;;2213461;66;2136;-21
2023/03/24 15:22:54;;;;;;;;;;;;;;;;;;2211248;67;1750;-21
2023/03/24 15:25:26;;;;;;;;;;;;;;;;;;2213305;67;1381;-21
2023/03/24 15:27:57;;;;;;;;;;;;;;;;;;2213007;67;1511;-21
2023/03/24 15:30:27;;;;;;;;;;;;;;;;;;2212062;59;1888;-21
2023/03/24 15:32:58;;;;;;;;;;;;;;;;;;2212770;59;1904;-21
2023/03/24 15:35:32;;;;;;;;;;;;;;;;;;2207124;59;1535;-21
2023/03/24 15:38:02;;;;;;;;;;;;;;;;;;2213256;67;2284;-21
2023/03/24 15:40:34;;;;;;;;;;;;;;;;;;2211433;67;1707;-21
2023/03/24 15:43:08;;;;;;;;;;;;;;;;;;2213980;59;1744;-21
2023/03/24 15:45:45;;;;;;;;;;;;;;;;;;2212956;67;1726;-21
2023/03/24 15:48:17;;;;;;;;;;;;;;;;;;2213427;59;1472;-19
2023/03/24 15:50:59;;;;;;;;;;;;;;;;;;2211762;67;1807;-19
2023/03/24 15:53:38;;;;;;;;;;;;;;;;;;2212170;59;1944;-19
2023/03/24 15:56:11;;;;;;;;;;;;;;;;;;2213343;59;1352;-19
2023/03/24 15:58:44;;;;;;;;;;;;;;;;;;2213700;67;1149;-19
2023/03/24 16:01:16;;;;;;;;;;;;;;;;;;2212513;67;1299;-19
2023/03/24 16:03:47;;;;;;;;;;;;;;;;;;2212837;67;1169;-19
2023/03/24 16:06:24;;;;;;;;;;;;;;;;;;2209667;67;1710;-19
2023/03/24 16:08:57;;;;;;;;;;;;;;;;;;2214846;67;1441;-19
2023/03/24 16:11:28;;;;;;;;;;;;;;;;;;2212637;67;1242;-19
2023/03/24 16:14:17;;;;;;;;;;;;;;;;;;2212870;67;1944;-19
2023/03/24 16:16:57;;;;;;;;;;;;;;;;;;2213782;67;1134;-25
2023/03/24 16:19:28;;;;;;;;;;;;;;;;;;2213359;67;1147;-19
2023/03/24 16:21:58;;;;;;;;;;;;;;;;;;2213721;67;1259;-19
2023/03/24 16:24:29;;;;;;;;;;;;;;;;;;2213123;67;1094;-19
2023/03/24 16:26:59;;;;;;;;;;;;;;;;;;2213990;67;1154;-19
2023/03/24 16:29:29;;;;;;;;;;;;;;;;;;2214238;67;1174;-19
2023/03/24 16:31:59;;;;;;;;;;;;;;;;;;2213701;67;1722;-19
2023/03/24 16:34:30;;;;;;;;;;;;;;;;;;2214013;67;1937;-19
2023/03/24 16:37:01;;;;;;;;;;;;;;;;;;2212401;67;1769;-19
2023/03/24 16:39:31;;;;;;;;;;;;;;;;;;2214695;67;1095;-19
2023/03/24 16:42:02;;;;;;;;;;;;;;;;;;2214559;59;1215;-19
2023/03/24 16:44:32;;;;;;;;;;;;;;;;;;2214484;59;1657;-19
2023/03/24 16:47:03;;;;;;;;;;;;;;;;;;2212871;67;1332;-19
2023/03/24 16:49:34;;;;;;;;;;;;;;;;;;2212363;67;2008;-19
2023/03/24 16:52:08;;;;;;;;;;;;;;;;;;2214172;67;1835;-19
2023/03/24 16:54:40;;;;;;;;;;;;;;;;;;2213365;67;1983;-19
2023/03/24 16:57:10;;;;;;;;;;;;;;;;;;2212909;67;1092;-19
2023/03/24 16:59:41;;;;;;;;;;;;;;;;;;2209516;67;2001;-19
2023/03/24 17:02:11;;;;;;;;;;;;;;;;;;2214659;67;1363;-19
2023/03/24 17:04:43;;;;;;;;;;;;;;;;;;2214549;67;1092;-19
2023/03/24 17:07:13;;;;;;;;;;;;;;;;;;2213603;67;1626;-19
2023/03/24 17:09:46;;;;;;;;;;;;;;;;;;2212563;67;1824;-19
2023/03/24 17:12:16;;;;;;;;;;;;;;;;;;2213210;59;1268;-21
2023/03/24 17:14:46;;;;;;;;;;;;;;;;;;2213320;67;1941;-21
2023/03/24 17:17:17;;;;;;;;;;;;;;;;;;2214002;67;1599;-21
2023/03/24 17:19:47;;;;;;;;;;;;;;;;;;2213594;67;1694;-21
2023/03/24 17:22:17;;;;;;;;;;;;;;;;;;2213793;67;1532;-21
2023/03/24 17:24:48;;;;;;;;;;;;;;;;;;2214651;67;1217;-21
2023/03/24 17:27:20;;;;;;;;;;;;;;;;;;2214669;67;1198;-21
2023/03/24 17:29:50;;;;;;;;;;;;;;;;;;2214347;67;1526;-21
2023/03/24 17:32:25;;;;;;;;;;;;;;;;;;2212898;67;1283;-21
2023/03/24 17:34:56;;;;;;;;;;;;;;;;;;2214290;67;1936;-21
2023/03/24 17:37:27;;;;;;;;;;;;;;;;;;2214660;66;1578;-21
2023/03/24 17:39:57;;;;;;;;;;;;;;;;;;2214161;67;1404;-21
2023/03/24 17:42:28;;;;;;;;;;;;;;;;;;2213927;59;1205;-21
2023/03/24 17:44:58;;;;;;;;;;;;;;;;;;2213478;67;1353;-21
2023/03/24 17:47:29;;;;;;;;;;;;;;;;;;2213922;67;1148;-21
2023/03/24 17:49:59;;;;;;;;;;;;;;;;;;2213169;67;1670;-21